Time;durP1;ratioP1;P1;durP2;ratioP2;P2;SDS_P1;SDS_P2;PMS_P1;PMS_P2;Temp;Humidity;BMP_temperature;BMP_pressure;BME280_temperature;BME280_humidity;BME280_pressure;Samples;Min_cycle;Max_cycle;Signal;HPM_P1;HPM_P2
2022/11/16 00:03:29;;;;;;;;;;;;;;;11.79;100.00;97849.03;10247004;23;20300;-78
2022/11/16 00:07:30;;;;;;;;;;;;;;;11.82;100.00;97846.31;10281008;23;19928;-78
2022/11/16 00:11:32;;;;;;;;;;;;;;;11.84;100.00;97857.50;10281347;23;19959;-77
2022/11/16 00:15:33;;;;;;;;;;;;;;;11.84;100.00;97860.13;10222143;23;20315;-78
2022/11/16 00:19:35;;;;;;;;;;;;;;;11.86;100.00;97868.75;10253023;23;19932;-79
2022/11/16 00:23:37;;;;;;;;;;;;;;;11.87;100.00;97862.63;10278773;23;19920;-78
2022/11/16 00:27:38;;;;;;;;;;;;;;;11.87;100.00;97857.44;10278441;22;20295;-78
2022/11/16 00:31:40;;;;;;;;;;;;;;;11.89;100.00;97875.59;10245664;23;19990;-78
2022/11/16 00:35:42;;;;;;;;;;;;;;;11.86;100.00;97863.53;10209441;23;20035;-78
2022/11/16 00:39:43;;;;;;;;;;;;;;;11.88;100.00;97866.09;10204079;23;19955;-79
2022/11/16 00:43:44;;;;;;;;;;;;;;;11.86;100.00;97866.13;10178985;23;20015;-79
2022/11/16 00:47:45;;;;;;;;;;;;;;;11.83;100.00;97866.22;10194940;23;19952;-78
2022/11/16 00:51:47;;;;;;;;;;;;;;;11.79;100.00;97855.06;10202908;23;19998;-78
2022/11/16 00:55:48;;;;;;;;;;;;;;;11.77;100.00;97863.81;10177348;23;20011;-79
2022/11/16 00:59:49;;;;;;;;;;;;;;;11.74;100.00;97856.09;10201197;23;19928;-78
2022/11/16 01:03:51;;;;;;;;;;;;;;;11.69;100.00;97855.44;10220177;23;20627;-77
2022/11/16 01:07:52;;;;;;;;;;;;;;;11.67;100.00;97860.69;10178495;23;19995;-78
2022/11/16 01:12:12;;;;;;;;;;;;;;;11.64;100.00;97855.56;10204724;23;19986;-78
2022/11/16 01:16:15;;;;;;;;;;;;;;;11.61;100.00;97845.25;10194871;23;20023;-78
2022/11/16 01:20:20;;;;;;;;;;;;;;;11.58;100.00;97847.13;10177212;23;20807;-78
2022/11/16 01:24:22;;;;;;;;;;;;;;;11.53;100.00;97839.47;10200459;23;20031;-79
2022/11/16 01:28:23;;;;;;;;;;;;;;;11.50;100.00;97855.19;10176174;23;19928;-79
2022/11/16 01:32:25;;;;;;;;;;;;;;;11.45;100.00;97838.88;10196055;23;19990;-79
2022/11/16 01:36:26;;;;;;;;;;;;;;;11.43;100.00;97856.25;10227427;23;19930;-79
2022/11/16 01:40:27;;;;;;;;;;;;;;;11.42;100.00;97868.41;10226234;23;19924;-79
2022/11/16 01:44:31;;;;;;;;;;;;;;;11.39;100.00;97885.84;10177986;23;20741;-78
2022/11/16 01:48:33;;;;;;;;;;;;;;;11.31;100.00;97867.03;10172663;23;20007;-78
2022/11/16 01:52:38;;;;;;;;;;;;;;;11.30;100.00;97870.53;10180275;23;19982;-78
2022/11/16 01:56:42;;;;;;;;;;;;;;;11.30;100.00;97868.78;10204373;23;19924;-78
2022/11/16 02:00:44;;;;;;;;;;;;;;;11.27;100.00;97853.31;10224528;23;19947;-79
2022/11/16 02:04:46;;;;;;;;;;;;;;;11.23;100.00;97854.31;10230022;23;19971;-78
2022/11/16 02:13:20;;;;;;;;;;;;;;;11.18;100.00;97854.47;10201715;23;20020;-79
2022/11/16 02:17:21;;;;;;;;;;;;;;;11.15;100.00;97854.56;10176583;23;20338;-77
2022/11/16 02:21:26;;;;;;;;;;;;;;;11.13;100.00;97850.28;10201890;23;20354;-77
2022/11/16 02:25:52;;;;;;;;;;;;;;;11.12;100.00;97864.19;10228063;23;20316;-77
2022/11/16 02:29:54;;;;;;;;;;;;;;;11.07;100.00;97868.66;10203902;23;20007;-77
2022/11/16 02:33:58;;;;;;;;;;;;;;;11.03;100.00;97867.06;10196875;23;19986;-78
2022/11/16 02:38:02;;;;;;;;;;;;;;;11.02;100.00;97865.38;10230350;23;19925;-80
2022/11/16 02:42:07;;;;;;;;;;;;;;;10.96;100.00;97871.63;10204634;23;19989;-78
2022/11/16 02:46:11;;;;;;;;;;;;;;;10.94;100.00;97872.53;10194698;23;19920;-78
2022/11/16 02:50:15;;;;;;;;;;;;;;;10.94;100.00;97857.81;10230166;23;19924;-79
2022/11/16 02:54:18;;;;;;;;;;;;;;;10.90;100.00;97838.88;10202778;23;20539;-78
2022/11/16 02:58:22;;;;;;;;;;;;;;;10.90;100.00;97845.81;10202559;23;19924;-78
2022/11/16 03:02:32;;;;;;;;;;;;;;;10.87;100.00;97857.16;10223649;23;19986;-79
2022/11/16 03:06:38;;;;;;;;;;;;;;;10.86;100.00;97857.19;10233493;23;20713;-78
2022/11/16 03:15:04;;;;;;;;;;;;;;;10.83;100.00;97863.34;10233687;23;19924;-78
2022/11/16 03:19:09;;;;;;;;;;;;;;;10.83;100.00;97871.13;10184352;23;20299;-78
2022/11/16 03:23:11;;;;;;;;;;;;;;;10.83;100.00;97872.88;10210902;23;19924;-78
2022/11/16 03:27:31;;;;;;;;;;;;;;;10.80;100.00;97873.81;10235960;23;19990;-80
2022/11/16 03:31:42;;;;;;;;;;;;;;;10.80;100.00;97879.00;10202948;23;20262;-78
2022/11/16 03:35:44;;;;;;;;;;;;;;;10.81;100.00;97887.66;10234661;23;19928;-78
2022/11/16 03:39:46;;;;;;;;;;;;;;;10.82;100.00;97894.53;10184568;23;19952;-78
2022/11/16 03:43:48;;;;;;;;;;;;;;;10.79;100.00;97898.09;10234893;23;19925;-77
2022/11/16 03:47:49;;;;;;;;;;;;;;;10.79;100.00;97900.69;10226763;23;20479;-79
2022/11/16 03:51:51;;;;;;;;;;;;;;;10.79;100.00;97899.84;10206973;23;20002;-80
2022/11/16 03:55:52;;;;;;;;;;;;;;;10.78;100.00;97909.38;10181998;23;20771;-78
2022/11/16 03:59:53;;;;;;;;;;;;;;;10.78;100.00;97909.38;10183669;23;19924;-78
2022/11/16 04:03:55;;;;;;;;;;;;;;;10.80;100.00;97919.69;10198554;23;20874;-78
2022/11/16 04:25:24;;;;;;;;;;;;;;;10.74;100.00;97931.09;10228858;23;20007;-77
2022/11/16 04:29:25;;;;;;;;;;;;;;;10.75;100.00;97924.16;10202257;23;19924;-78
2022/11/16 04:37:48;;;;;;;;;;;;;;;10.73;100.00;97931.13;10201678;23;19991;-82
2022/11/16 04:50:29;;;;;;;;;;;;;;;10.56;100.00;97945.44;10203320;23;20010;-78
2022/11/16 04:54:30;;;;;;;;;;;;;;;10.48;100.00;97931.84;10203497;23;19928;-78
2022/11/16 04:58:32;;;;;;;;;;;;;;;10.45;100.00;97933.66;10178480;23;19977;-78
2022/11/16 05:02:34;;;;;;;;;;;;;;;10.45;100.00;97944.06;10195562;23;19924;-78
2022/11/16 05:06:35;;;;;;;;;;;;;;;10.45;100.00;97939.72;10203785;23;20007;-78
2022/11/16 05:10:36;;;;;;;;;;;;;;;10.40;100.00;97938.13;10203751;23;20263;-77
2022/11/16 05:14:38;;;;;;;;;;;;;;;10.34;100.00;97939.13;10231117;23;20003;-79
2022/11/16 05:18:39;;;;;;;;;;;;;;;10.29;100.00;97944.47;10196235;23;19928;-80
2022/11/16 05:22:41;;;;;;;;;;;;;;;10.23;100.00;97936.84;10205100;23;19924;-78
2022/11/16 05:26:42;;;;;;;;;;;;;;;10.20;100.00;97939.47;10179359;23;19924;-80
2022/11/16 05:30:44;;;;;;;;;;;;;;;10.18;100.00;97943.00;10224063;23;20445;-79
2022/11/16 05:34:45;;;;;;;;;;;;;;;10.08;100.00;97937.22;10202590;23;19931;-78
2022/11/16 05:38:47;;;;;;;;;;;;;;;9.98;100.00;97951.28;10201582;23;19924;-78
2022/11/16 05:42:50;;;;;;;;;;;;;;;9.89;100.00;97952.38;10202082;23;20021;-79
2022/11/16 05:46:54;;;;;;;;;;;;;;;9.80;100.00;97950.00;10231165;23;20231;-78
2022/11/16 05:50:58;;;;;;;;;;;;;;;9.69;100.00;97952.88;10227233;23;19924;-79
2022/11/16 05:55:00;;;;;;;;;;;;;;;9.61;100.00;97957.38;10175851;23;19931;-78
2022/11/16 05:59:01;;;;;;;;;;;;;;;9.54;100.00;97962.75;10226893;23;19930;-79
2022/11/16 06:03:03;;;;;;;;;;;;;;;9.45;100.00;97971.56;10168404;23;20209;-78
2022/11/16 06:07:04;;;;;;;;;;;;;;;9.39;100.00;97976.91;10200585;23;20492;-79
2022/11/16 06:11:06;;;;;;;;;;;;;;;9.35;100.00;97975.28;10175602;23;19951;-79
2022/11/16 06:15:08;;;;;;;;;;;;;;;9.28;100.00;97984.03;10195024;23;19924;-78
2022/11/16 06:19:09;;;;;;;;;;;;;;;9.23;100.00;97978.97;10174449;23;19924;-78
2022/11/16 06:23:10;;;;;;;;;;;;;;;9.15;100.00;97990.34;10200786;23;19974;-78
2022/11/16 06:27:12;;;;;;;;;;;;;;;9.05;100.00;97982.81;10200303;23;20014;-78
2022/11/16 06:31:13;;;;;;;;;;;;;;;9.00;100.00;97983.78;10167312;23;20570;-78
2022/11/16 06:35:14;;;;;;;;;;;;;;;8.95;100.00;97990.78;10173272;23;19924;-80
2022/11/16 06:39:16;;;;;;;;;;;;;;;8.88;100.00;97999.56;10176365;23;20359;-79
2022/11/16 06:43:18;;;;;;;;;;;;;;;8.71;100.00;98003.34;10150424;23;19924;-79
2022/11/16 06:47:19;;;;;;;;;;;;;;;8.67;100.00;97999.09;10171590;23;20050;-78
2022/11/16 06:51:20;;;;;;;;;;;;;;;8.67;100.00;98004.28;10179429;23;19960;-79
2022/11/16 06:55:22;;;;;;;;;;;;;;;8.65;100.00;98007.78;10180068;23;20015;-77
2022/11/16 06:59:23;;;;;;;;;;;;;;;8.65;100.00;98008.63;10153499;23;20728;-78
2022/11/16 07:03:24;;;;;;;;;;;;;;;8.62;100.00;98010.44;10170200;23;19986;-77
2022/11/16 07:07:26;;;;;;;;;;;;;;;8.57;100.00;98012.22;10178984;23;19967;-77
2022/11/16 07:11:27;;;;;;;;;;;;;;;8.58;100.00;98021.69;10179316;23;19928;-78
2022/11/16 07:15:30;;;;;;;;;;;;;;;8.56;100.00;98019.13;10147001;23;19929;-78
2022/11/16 07:19:31;;;;;;;;;;;;;;;8.63;100.00;98025.94;10153946;23;19984;-78
2022/11/16 07:23:32;;;;;;;;;;;;;;;8.70;100.00;98026.66;10179098;23;19938;-78
2022/11/16 07:27:34;;;;;;;;;;;;;;;8.80;100.00;98023.03;10180083;23;19975;-77
2022/11/16 07:31:35;;;;;;;;;;;;;;;8.96;100.00;98033.91;10170013;23;19950;-79
2022/11/16 07:35:36;;;;;;;;;;;;;;;9.10;100.00;98021.53;10152559;23;19999;-78
2022/11/16 07:39:38;;;;;;;;;;;;;;;9.23;100.00;98035.94;10178349;23;19924;-77
2022/11/16 07:43:40;;;;;;;;;;;;;;;9.28;100.00;98026.31;10176472;23;19975;-77
2022/11/16 07:47:41;;;;;;;;;;;;;;;9.35;100.00;98033.09;10171652;23;20286;-78
2022/11/16 07:51:44;;;;;;;;;;;;;;;9.46;100.00;98039.78;10177704;23;20024;-77
2022/11/16 07:55:52;;;;;;;;;;;;;;;9.63;100.00;98046.28;10155091;23;20007;-78
2022/11/16 07:59:54;;;;;;;;;;;;;;;9.82;100.00;98046.72;10177971;23;20023;-77
2022/11/16 08:03:55;;;;;;;;;;;;;;;9.96;100.00;98044.66;10169983;23;19929;-77
2022/11/16 08:07:56;;;;;;;;;;;;;;;10.03;100.00;98047.09;10155040;23;19994;-77
2022/11/16 08:11:58;;;;;;;;;;;;;;;10.01;100.00;98054.94;10178542;23;20586;-79
2022/11/16 08:16:01;;;;;;;;;;;;;;;10.02;100.00;98059.22;10147023;23;20387;-77
2022/11/16 08:20:02;;;;;;;;;;;;;;;10.06;100.00;98054.84;10152945;23;20372;-77
2022/11/16 08:24:03;;;;;;;;;;;;;;;10.12;100.00;98057.28;10175999;23;19951;-77
2022/11/16 08:28:05;;;;;;;;;;;;;;;10.41;100.00;98054.88;10179167;23;19925;-77
2022/11/16 08:32:06;;;;;;;;;;;;;;;10.76;100.00;98048.72;10170934;23;20299;-78
2022/11/16 08:36:09;;;;;;;;;;;;;;;11.07;98.37;98047.91;10153923;23;20022;-77
2022/11/16 08:40:14;;;;;;;;;;;;;;;11.39;95.85;98045.25;10155993;23;19924;-78
2022/11/16 08:44:16;;;;;;;;;;;;;;;11.63;94.37;98045.41;10173334;23;20060;-78
2022/11/16 08:48:18;;;;;;;;;;;;;;;11.93;92.07;98052.28;10170958;23;19932;-77
2022/11/16 08:52:19;;;;;;;;;;;;;;;12.33;91.32;98053.59;10181471;23;19975;-78
2022/11/16 08:56:21;;;;;;;;;;;;;;;12.50;88.83;98046.09;10178813;23;20367;-77
2022/11/16 09:00:22;;;;;;;;;;;;;;;12.80;87.99;98043.34;10145335;23;19925;-77
2022/11/16 09:04:23;;;;;;;;;;;;;;;12.74;87.15;98046.16;10200516;23;19952;-77
2022/11/16 09:08:25;;;;;;;;;;;;;;;12.53;86.59;98055.53;10174731;23;20788;-77
2022/11/16 09:12:26;;;;;;;;;;;;;;;12.28;86.76;98056.38;10178405;23;19928;-77
2022/11/16 09:16:27;;;;;;;;;;;;;;;12.16;88.19;98053.31;10169606;23;19924;-77
2022/11/16 09:20:29;;;;;;;;;;;;;;;11.97;88.63;98059.09;10151799;23;20003;-78
2022/11/16 09:24:30;;;;;;;;;;;;;;;11.80;88.10;98057.03;10177674;23;19924;-77
2022/11/16 09:28:32;;;;;;;;;;;;;;;12.07;89.56;98051.88;10154340;23;19966;-77
2022/11/16 09:32:34;;;;;;;;;;;;;;;12.33;88.50;98051.84;10171051;23;19921;-77
2022/11/16 09:36:38;;;;;;;;;;;;;;;12.32;86.72;98052.75;10236901;23;20601;-77
2022/11/16 09:40:41;;;;;;;;;;;;;;;12.34;87.35;98061.38;10201494;23;19924;-77
2022/11/16 09:44:42;;;;;;;;;;;;;;;12.34;87.48;98066.56;10202239;23;19931;-77
2022/11/16 09:48:45;;;;;;;;;;;;;;;12.20;87.16;98062.72;10177150;23;20000;-77
2022/11/16 09:52:47;;;;;;;;;;;;;;;12.08;87.14;98062.22;10201312;23;19928;-77
2022/11/16 09:56:50;;;;;;;;;;;;;;;11.99;87.54;98057.28;10178395;23;20006;-78
2022/11/16 10:00:55;;;;;;;;;;;;;;;12.21;89.01;98052.28;10195182;23;19935;-77
2022/11/16 10:05:01;;;;;;;;;;;;;;;12.30;88.40;98056.31;10228857;23;20015;-77
2022/11/16 10:09:03;;;;;;;;;;;;;;;12.41;87.72;98059.44;10202112;23;19967;-77
2022/11/16 10:13:05;;;;;;;;;;;;;;;12.50;88.28;98056.50;10228004;23;19972;-77
2022/11/16 10:17:12;;;;;;;;;;;;;;;12.41;86.99;98054.22;10220506;23;19998;-77
2022/11/16 10:21:13;;;;;;;;;;;;;;;12.30;86.03;98049.38;10180080;23;20456;-77
2022/11/16 10:25:19;;;;;;;;;;;;;;;12.28;86.16;98052.91;10180668;23;19982;-77
2022/11/16 10:29:45;;;;;;;;;;;;;;;12.22;86.73;98043.56;10180993;23;19978;-76
2022/11/16 10:33:48;;;;;;;;;;;;;;;12.17;86.18;98039.41;10172314;23;20383;-77
2022/11/16 10:37:50;;;;;;;;;;;;;;;12.20;86.55;98028.88;10205803;23;19977;-77
2022/11/16 10:41:51;;;;;;;;;;;;;;;12.35;88.48;98025.78;10206168;23;19974;-77
2022/11/16 10:46:02;;;;;;;;;;;;;;;12.48;87.87;98006.25;10219512;23;19991;-77
2022/11/16 10:50:17;;;;;;;;;;;;;;;12.60;87.41;97999.78;10206408;23;20255;-77
2022/11/16 10:54:18;;;;;;;;;;;;;;;12.58;85.44;98002.44;10205499;23;19924;-77
2022/11/16 10:58:19;;;;;;;;;;;;;;;12.59;86.26;97993.72;10206313;23;19979;-77
2022/11/16 11:02:24;;;;;;;;;;;;;;;12.61;85.92;97988.44;10224328;23;19924;-77
2022/11/16 11:06:25;;;;;;;;;;;;;;;12.60;85.88;97986.75;10180470;23;19924;-77
2022/11/16 11:10:31;;;;;;;;;;;;;;;12.57;84.24;97982.50;10205445;23;20027;-77
2022/11/16 11:14:34;;;;;;;;;;;;;;;12.65;84.94;97977.88;10177181;23;19983;-77
2022/11/16 11:18:36;;;;;;;;;;;;;;;12.74;85.45;97965.41;10218282;23;20296;-77
2022/11/16 11:22:41;;;;;;;;;;;;;;;12.77;85.23;97952.31;10226904;23;20022;-77
2022/11/16 11:26:49;;;;;;;;;;;;;;;12.83;83.83;97954.66;10200815;23;19971;-76
2022/11/16 11:30:56;;;;;;;;;;;;;;;12.87;83.26;97957.09;10222104;23;19928;-77
2022/11/16 11:34:59;;;;;;;;;;;;;;;12.89;82.56;97957.03;10178390;23;19993;-77
2022/11/16 11:39:24;;;;;;;;;;;;;;;12.84;81.59;97938.97;10203100;23;19959;-77
2022/11/16 11:43:26;;;;;;;;;;;;;;;12.86;83.42;97934.56;10229294;23;19920;-77
2022/11/16 11:47:36;;;;;;;;;;;;;;;12.85;82.92;97939.84;10223733;23;20373;-78
2022/11/16 11:52:02;;;;;;;;;;;;;;;12.63;83.97;97942.38;10203316;23;19991;-78
2022/11/16 11:56:03;;;;;;;;;;;;;;;12.55;85.64;97937.41;10178034;23;19924;-77
2022/11/16 12:00:05;;;;;;;;;;;;;;;12.49;87.53;97936.81;10193762;23;19994;-76
2022/11/16 12:04:07;;;;;;;;;;;;;;;12.39;88.24;97929.34;10223252;23;19998;-76
2022/11/16 12:08:23;;;;;;;;;;;;;;;12.33;89.39;97921.72;10224978;23;19927;-76
2022/11/16 12:12:36;;;;;;;;;;;;;;;12.31;90.98;97922.69;10197448;23;19925;-77
2022/11/16 12:16:40;;;;;;;;;;;;;;;12.23;91.06;97922.13;10161607;23;19928;-76
2022/11/16 12:20:44;;;;;;;;;;;;;;;12.20;91.88;97916.97;10222707;23;19928;-76
2022/11/16 12:24:46;;;;;;;;;;;;;;;12.26;93.11;97916.78;10224229;23;19979;-77
2022/11/16 12:28:47;;;;;;;;;;;;;;;12.32;92.89;97911.38;10198205;23;19928;-76
2022/11/16 12:32:54;;;;;;;;;;;;;;;12.36;93.88;97903.38;10190612;23;20429;-77
2022/11/16 12:37:02;;;;;;;;;;;;;;;12.39;93.76;97897.25;10171478;23;19921;-76
2022/11/16 12:41:31;;;;;;;;;;;;;;;12.39;94.41;97892.88;10171273;23;19929;-76
2022/11/16 12:45:42;;;;;;;;;;;;;;;12.47;94.59;97887.41;10166726;23;19929;-76
2022/11/16 12:49:43;;;;;;;;;;;;;;;12.51;94.75;97888.13;10148237;23;19998;-76
2022/11/16 12:53:59;;;;;;;;;;;;;;;12.59;94.76;97891.31;10172143;23;20284;-75
2022/11/16 12:58:04;;;;;;;;;;;;;;;12.63;95.02;97883.34;10170484;23;19924;-76
2022/11/16 13:02:08;;;;;;;;;;;;;;;12.62;93.67;97879.03;10141113;23;19925;-76
2022/11/16 13:06:13;;;;;;;;;;;;;;;12.62;94.22;97872.97;10173103;23;19943;-77
2022/11/16 13:10:19;;;;;;;;;;;;;;;12.71;93.66;97854.38;10173157;23;19924;-76
2022/11/16 13:14:24;;;;;;;;;;;;;;;12.96;94.23;97857.78;10175191;23;19924;-77
2022/11/16 13:18:26;;;;;;;;;;;;;;;13.05;93.49;97850.50;10167396;23;19931;-76
2022/11/16 13:22:30;;;;;;;;;;;;;;;13.10;91.88;97858.97;10176932;23;19929;-77
2022/11/16 13:27:07;;;;;;;;;;;;;;;13.09;90.81;97847.69;10177584;23;19924;-77
2022/11/16 13:31:11;;;;;;;;;;;;;;;13.14;91.24;97853.59;10107134;23;20385;-77
2022/11/16 13:35:14;;;;;;;;;;;;;;;13.18;91.45;97846.53;10176559;23;20324;-77
2022/11/16 13:39:17;;;;;;;;;;;;;;;13.08;89.89;97837.34;10177001;23;20007;-77
2022/11/16 13:43:23;;;;;;;;;;;;;;;13.04;90.46;97828.81;10177472;23;19946;-77
2022/11/16 13:47:29;;;;;;;;;;;;;;;12.90;88.95;97836.31;10169513;23;20373;-77
2022/11/16 13:51:30;;;;;;;;;;;;;;;12.79;88.50;97835.88;10177345;23;19995;-77
2022/11/16 13:55:33;;;;;;;;;;;;;;;12.69;88.42;97832.75;10177406;23;19982;-77
2022/11/16 13:59:35;;;;;;;;;;;;;;;12.61;88.31;97827.00;10153273;23;20288;-77
2022/11/16 14:03:37;;;;;;;;;;;;;;;12.57;89.16;97821.06;10169243;23;19929;-77
2022/11/16 14:07:42;;;;;;;;;;;;;;;12.54;88.79;97815.13;10178255;23;19924;-78
2022/11/16 14:11:43;;;;;;;;;;;;;;;12.53;88.98;97816.88;10176393;23;20019;-77
2022/11/16 14:15:44;;;;;;;;;;;;;;;12.49;89.02;97820.50;10171352;23;20303;-77
2022/11/16 14:19:50;;;;;;;;;;;;;;;12.41;88.98;97814.75;10152431;23;19959;-77
2022/11/16 14:24:15;;;;;;;;;;;;;;;12.42;89.32;97806.03;10151759;23;20002;-77
2022/11/16 14:28:36;;;;;;;;;;;;;;;12.37;88.03;97789.72;10168658;23;19925;-77
2022/11/16 14:32:45;;;;;;;;;;;;;;;12.35;87.25;97788.91;10168644;23;19952;-76
2022/11/16 14:36:47;;;;;;;;;;;;;;;12.34;88.00;97802.84;10148315;23;19925;-77
2022/11/16 14:40:50;;;;;;;;;;;;;;;12.32;87.83;97797.69;10174837;23;20352;-77
2022/11/16 14:45:00;;;;;;;;;;;;;;;12.37;88.34;97780.16;10173122;23;19936;-77
2022/11/16 14:49:02;;;;;;;;;;;;;;;12.36;89.66;97786.25;10166998;23;20334;-77
2022/11/16 14:53:05;;;;;;;;;;;;;;;12.26;88.99;97768.47;10149335;23;19925;-77
2022/11/16 14:57:11;;;;;;;;;;;;;;;12.19;89.50;97774.78;10148762;23;19925;-77
2022/11/16 15:01:13;;;;;;;;;;;;;;;12.06;89.30;97764.84;10166027;23;20287;-77
2022/11/16 15:05:16;;;;;;;;;;;;;;;11.95;90.54;97774.78;10176540;23;19967;-78
2022/11/16 15:09:21;;;;;;;;;;;;;;;11.82;91.00;97770.91;10155355;23;19928;-78
2022/11/16 15:13:23;;;;;;;;;;;;;;;11.78;90.42;97769.28;10154498;23;19975;-78
2022/11/16 15:17:25;;;;;;;;;;;;;;;11.72;91.71;97769.50;10172211;23;20016;-78
2022/11/16 15:21:33;;;;;;;;;;;;;;;11.65;92.64;97752.41;10157962;23;20312;-78
2022/11/16 15:25:36;;;;;;;;;;;;;;;11.64;94.09;97753.31;10156743;23;19925;-77
2022/11/16 15:29:38;;;;;;;;;;;;;;;11.60;94.90;97741.34;10185300;23;19975;-78
2022/11/16 15:33:42;;;;;;;;;;;;;;;11.56;95.20;97740.59;10181995;23;19928;-80
2022/11/16 15:37:43;;;;;;;;;;;;;;;11.55;95.31;97732.84;10208976;23;20025;-79
2022/11/16 15:41:45;;;;;;;;;;;;;;;11.53;94.19;97729.47;10207789;23;19925;-80
2022/11/16 15:45:47;;;;;;;;;;;;;;;11.50;93.09;97715.69;10208066;23;20128;-80
2022/11/16 15:49:51;;;;;;;;;;;;;;;11.49;92.92;97718.34;10208886;23;19956;-81
2022/11/16 15:53:53;;;;;;;;;;;;;;;11.46;92.85;97721.84;10214821;23;20007;-78
2022/11/16 15:57:58;;;;;;;;;;;;;;;11.40;91.76;97724.69;10208358;23;20370;-79
2022/11/16 16:01:59;;;;;;;;;;;;;;;11.36;91.87;97714.47;10199814;23;19951;-77
2022/11/16 16:06:01;;;;;;;;;;;;;;;11.35;92.12;97712.75;10206817;23;19965;-79
2022/11/16 16:10:12;;;;;;;;;;;;;;;11.31;92.29;97714.63;10181644;23;20628;-78
2022/11/16 16:14:29;;;;;;;;;;;;;;;11.31;91.54;97708.53;10208977;23;19924;-79
2022/11/16 16:18:42;;;;;;;;;;;;;;;11.30;91.43;97701.66;10204181;23;19925;-78
2022/11/16 16:23:07;;;;;;;;;;;;;;;11.29;90.61;97705.16;10184806;23;19935;-78
2022/11/16 16:27:14;;;;;;;;;;;;;;;11.27;90.61;97712.16;10205446;23;19928;-78
2022/11/16 16:31:20;;;;;;;;;;;;;;;11.24;90.41;97704.47;10226084;23;20446;-78
2022/11/16 16:35:29;;;;;;;;;;;;;;;11.23;90.74;97706.22;10183864;23;19925;-78
2022/11/16 16:39:42;;;;;;;;;;;;;;;11.23;91.67;97702.78;10184785;23;19936;-79
2022/11/16 16:43:52;;;;;;;;;;;;;;;11.20;92.57;97691.59;10162620;23;19970;-78
2022/11/16 16:47:54;;;;;;;;;;;;;;;11.18;92.66;97688.19;10152275;23;19936;-79
2022/11/16 16:52:01;;;;;;;;;;;;;;;11.17;91.74;97686.50;10185998;23;19932;-79
2022/11/16 16:56:13;;;;;;;;;;;;;;;11.15;90.74;97684.88;10160565;23;19921;-79
2022/11/16 17:00:26;;;;;;;;;;;;;;;11.12;90.93;97683.19;10179642;23;19924;-79
2022/11/16 17:04:52;;;;;;;;;;;;;;;11.13;90.00;97674.53;10184770;23;19925;-79
2022/11/16 17:09:00;;;;;;;;;;;;;;;11.09;90.56;97672.06;10184409;23;19925;-78
2022/11/16 17:13:11;;;;;;;;;;;;;;;11.06;91.00;97657.44;10184447;23;19967;-78
2022/11/16 17:17:19;;;;;;;;;;;;;;;11.05;91.21;97642.75;10170901;23;19928;-79
2022/11/16 17:21:28;;;;;;;;;;;;;;;11.02;91.81;97640.28;10182468;23;19925;-79
2022/11/16 17:25:38;;;;;;;;;;;;;;;11.00;91.61;97636.88;10159956;23;19975;-80
2022/11/16 17:30:01;;;;;;;;;;;;;;;10.97;91.24;97626.59;10182928;23;19932;-79
2022/11/16 17:34:18;;;;;;;;;;;;;;;10.94;90.67;97616.31;10167612;23;19925;-80
2022/11/16 17:38:20;;;;;;;;;;;;;;;10.95;91.15;97611.94;10209539;23;19948;-80
2022/11/16 17:42:35;;;;;;;;;;;;;;;10.93;90.81;97608.56;10252251;23;20360;-79
2022/11/16 17:46:42;;;;;;;;;;;;;;;10.92;90.16;97609.47;10201390;23;19947;-80
2022/11/16 17:50:55;;;;;;;;;;;;;;;10.90;90.06;97602.59;10184029;23;19920;-80
2022/11/16 17:55:00;;;;;;;;;;;;;;;10.84;90.70;97601.94;10182683;23;19925;-80
2022/11/16 17:59:06;;;;;;;;;;;;;;;10.76;90.81;97606.53;10207249;23;19920;-80
2022/11/16 18:03:28;;;;;;;;;;;;;;;10.74;91.12;97608.34;10173078;23;19931;-80
2022/11/16 18:07:32;;;;;;;;;;;;;;;10.75;90.71;97608.28;10223454;23;19924;-80
2022/11/16 18:11:38;;;;;;;;;;;;;;;10.75;91.16;97592.72;10224233;23;19924;-80
2022/11/16 18:15:49;;;;;;;;;;;;;;;10.75;91.41;97589.28;10175289;23;20926;-80
2022/11/16 18:19:54;;;;;;;;;;;;;;;10.74;91.09;97587.56;10205327;23;19924;-80
2022/11/16 18:24:06;;;;;;;;;;;;;;;10.73;92.12;97597.13;10233712;23;20422;-80
2022/11/16 18:28:10;;;;;;;;;;;;;;;10.71;92.60;97601.50;10224218;23;19950;-79
2022/11/16 18:32:32;;;;;;;;;;;;;;;10.71;92.67;97604.09;10204711;23;19924;-80
2022/11/16 18:36:41;;;;;;;;;;;;;;;10.70;92.35;97628.38;10159132;23;20328;-80
2022/11/16 18:41:07;;;;;;;;;;;;;;;10.70;92.16;97630.97;10186094;23;19925;-79
2022/11/16 18:45:16;;;;;;;;;;;;;;;10.70;92.19;97643.94;10179907;23;19932;-79
2022/11/16 18:49:45;;;;;;;;;;;;;;;10.71;92.78;97644.78;10167362;23;19921;-80
2022/11/16 18:53:50;;;;;;;;;;;;;;;10.68;93.17;97624.97;10160871;23;19999;-80
2022/11/16 18:58:04;;;;;;;;;;;;;;;10.70;94.08;97610.19;10162039;23;20538;-80
2022/11/16 19:02:31;;;;;;;;;;;;;;;10.68;93.87;97595.59;10185419;23;19987;-80
2022/11/16 19:06:42;;;;;;;;;;;;;;;10.67;94.44;97592.13;10207884;23;20271;-80
2022/11/16 19:10:54;;;;;;;;;;;;;;;10.61;94.20;97587.16;10185872;23;20157;-80
2022/11/16 19:14:59;;;;;;;;;;;;;;;10.56;93.72;97589.88;10184553;23;19986;-79
2022/11/16 19:19:02;;;;;;;;;;;;;;;10.51;93.41;97590.94;10154109;23;20484;-78
2022/11/16 19:23:10;;;;;;;;;;;;;;;10.51;93.27;97586.59;10184724;23;20003;-78
2022/11/16 19:27:18;;;;;;;;;;;;;;;10.48;92.77;97591.91;10182923;23;19928;-77
2022/11/16 19:31:24;;;;;;;;;;;;;;;10.46;92.92;97583.31;10174794;23;19986;-77
2022/11/16 19:35:30;;;;;;;;;;;;;;;10.45;92.30;97588.56;10196268;23;19947;-78
2022/11/16 19:39:50;;;;;;;;;;;;;;;10.41;92.51;97586.94;10181805;23;19935;-78
2022/11/16 19:44:01;;;;;;;;;;;;;;;10.41;92.94;97576.56;10182962;23;19959;-78
2022/11/16 19:48:14;;;;;;;;;;;;;;;10.38;92.53;97577.53;10174430;23;20013;-77
2022/11/16 19:52:20;;;;;;;;;;;;;;;10.39;92.72;97570.59;10180476;23;19924;-78
2022/11/16 19:56:50;;;;;;;;;;;;;;;10.36;92.92;97566.34;10183277;23;19924;-78
2022/11/16 20:01:26;;;;;;;;;;;;;;;10.35;91.89;97564.66;10142821;23;19936;-77
2022/11/16 20:05:31;;;;;;;;;;;;;;;10.35;92.11;97562.06;10180487;23;19955;-78
2022/11/16 20:09:51;;;;;;;;;;;;;;;10.33;91.87;97563.88;10180401;23;19925;-78
2022/11/16 20:14:09;;;;;;;;;;;;;;;10.34;91.80;97556.94;10181117;23;20004;-78
2022/11/16 20:18:32;;;;;;;;;;;;;;;10.33;92.14;97550.91;10180814;23;19924;-78
2022/11/16 20:22:42;;;;;;;;;;;;;;;10.34;91.47;97554.34;10156873;23;20407;-77
2022/11/16 20:26:59;;;;;;;;;;;;;;;10.37;91.44;97552.47;10176974;23;20307;-78
2022/11/16 20:31:29;;;;;;;;;;;;;;;10.35;92.01;97550.84;10149951;23;19929;-78
2022/11/16 20:35:32;;;;;;;;;;;;;;;10.33;91.96;97540.53;10171475;23;20326;-77
2022/11/16 20:39:44;;;;;;;;;;;;;;;10.32;92.03;97536.22;10173710;23;19925;-77
2022/11/16 20:48:49;;;;;;;;;;;;;;;10.29;92.68;97529.41;10169851;23;19921;-76
2022/11/16 20:52:55;;;;;;;;;;;;;;;10.29;93.02;97519.03;10171078;23;19935;-77
2022/11/16 20:57:04;;;;;;;;;;;;;;;10.26;93.21;97516.53;10171485;23;19924;-76
2022/11/16 21:01:46;;;;;;;;;;;;;;;10.27;94.05;97510.44;10160318;23;19978;-75
2022/11/16 21:06:10;;;;;;;;;;;;;;;10.27;94.40;97501.81;10166416;23;19932;-75
2022/11/16 21:10:45;;;;;;;;;;;;;;;;;;;;;
2022/11/16 21:15:13;;;;;;;;;;;;;;;10.25;95.52;97496.69;10162346;23;19955;-77
2022/11/16 21:19:31;;;;;;;;;;;;;;;10.20;95.91;97490.75;10149720;23;19924;-76
2022/11/16 21:23:50;;;;;;;;;;;;;;;10.16;96.16;97486.56;10148127;23;19924;-78
2022/11/16 21:28:03;;;;;;;;;;;;;;;10.17;96.41;97482.22;10149567;23;20406;-77
2022/11/16 21:37:22;;;;;;;;;;;;;;;10.08;96.33;97472.19;10233290;23;19999;-77
2022/11/16 21:41:38;;;;;;;;;;;;;;;10.07;96.56;97458.38;10198407;23;19991;-78
2022/11/16 21:45:43;;;;;;;;;;;;;;;10.08;96.65;97459.22;10182507;23;20512;-77
2022/11/16 21:50:23;;;;;;;;;;;;;;;10.07;96.87;97436.78;10197389;23;19924;-77
2022/11/16 21:54:55;;;;;;;;;;;;;;;10.05;97.26;97442.00;10174185;23;20256;-76